createdAt,value
2018-05-23T00:00:55.366Z,147985.25
2018-05-23T00:03:26.421Z,147991.47
2018-05-23T00:05:55.418Z,147972.83
2018-05-23T00:08:25.228Z,147969.05
2018-05-23T00:10:56.759Z,147972.83
2018-05-23T00:13:25.874Z,147977.80
2018-05-23T00:15:54.771Z,147979.66
2018-05-23T00:18:24.775Z,147970.97
2018-05-23T00:20:53.683Z,147967.81
2018-05-23T00:23:22.773Z,147966.56
2018-05-23T00:25:51.750Z,147966.56
2018-05-23T00:28:20.737Z,147946.69
2018-05-23T00:30:49.654Z,147944.83
2018-05-23T00:33:18.756Z,147953.53
2018-05-23T00:35:47.760Z,147941.72
2018-05-23T00:38:16.761Z,147939.86
2018-05-23T00:40:45.938Z,147933.66
2018-05-23T00:43:14.832Z,147936.75
2018-05-23T00:45:43.724Z,147929.92
2018-05-23T00:48:13.539Z,147937.38
2018-05-23T00:50:42.568Z,147929.92
2018-05-23T00:53:11.406Z,147909.38
2018-05-23T00:55:40.313Z,147919.94
2018-05-23T00:58:09.166Z,147915.59
2018-05-23T01:00:38.077Z,147910.62
2018-05-23T01:05:40.742Z,147896.34
2018-05-23T01:08:09.592Z,147895.72
2018-05-23T01:10:38.415Z,147895.09
2018-05-23T01:13:07.460Z,147892.61
2018-05-23T01:15:36.371Z,147897.58
2018-05-23T01:18:10.315Z,147903.80
2018-05-23T01:20:39.364Z,147893.86
2018-05-23T01:23:08.474Z,147868.34
2018-05-23T01:25:37.285Z,147869.59
2018-05-23T01:28:06.358Z,147870.22
2018-05-23T01:30:35.276Z,147862.14
2018-05-23T01:35:38.350Z,147862.14
2018-05-23T01:38:07.353Z,147868.34
2018-05-23T01:43:10.618Z,147856.55
2018-05-23T01:45:39.651Z,147864.00
2018-05-23T01:48:09.669Z,147869.59
2018-05-23T01:50:38.559Z,147857.17
2018-05-23T01:53:08.364Z,147865.25
2018-05-23T01:58:11.414Z,147860.28
2018-05-23T02:00:40.223Z,147867.11
2018-05-23T02:03:09.196Z,147868.34
2018-05-23T02:05:38.363Z,147858.42
2018-05-23T02:08:07.361Z,147851.59
2018-05-23T02:10:36.657Z,147837.31
2018-05-23T02:13:05.656Z,147845.38
2018-05-23T02:15:34.554Z,147845.38
2018-05-23T02:18:03.641Z,147852.83
2018-05-23T02:20:32.532Z,147855.31
2018-05-23T02:23:01.369Z,147860.28
2018-05-23T02:25:30.223Z,147865.25
2018-05-23T02:30:34.348Z,147867.11
2018-05-23T02:33:03.240Z,147875.23
2018-05-23T02:35:32.216Z,147864.63
2018-05-23T02:40:35.299Z,147850.34
2018-05-23T02:43:04.336Z,147852.83
2018-05-23T02:45:34.251Z,147885.78
2018-05-23T02:48:03.345Z,147890.75
2018-05-23T02:50:32.961Z,147892.00
2018-05-23T02:53:05.031Z,147903.80
2018-05-23T02:55:34.246Z,147912.48
2018-05-23T02:58:03.246Z,147919.31
2018-05-23T03:00:33.260Z,147957.25
2018-05-23T03:03:02.368Z,148021.94
2018-05-23T03:05:31.429Z,148122.75
2018-05-23T03:08:00.421Z,148226.63
2018-05-23T03:10:29.418Z,148318.78
2018-05-23T03:12:58.311Z,148417.75
2018-05-23T03:15:27.513Z,148508.72
2018-05-23T03:17:56.394Z,148596.53
2018-05-23T03:20:25.343Z,148701.81
2018-05-23T03:22:54.285Z,148792.23
2018-05-23T03:25:23.374Z,148938.77
2018-05-23T03:27:52.278Z,149043.52
2018-05-23T03:30:22.170Z,149220.75
2018-05-23T03:32:51.184Z,149369.34
2018-05-23T03:35:21.075Z,149476.72
2018-05-23T03:37:51.620Z,149614.17
2018-05-23T03:40:20.578Z,149680.47
2018-05-23T03:42:49.497Z,149686.08
2018-05-23T03:45:19.274Z,149794.80
2018-05-23T03:47:48.143Z,149879.86
2018-05-23T03:50:16.932Z,149994.25
2018-05-23T03:52:48.327Z,150086.86
2018-05-23T03:55:17.320Z,150210.16
2018-05-23T03:57:46.377Z,150384.83
2018-05-23T04:00:27.136Z,150472.42
2018-05-23T04:03:07.579Z,150507.55
2018-05-23T04:05:48.453Z,150585.83
2018-05-23T04:08:17.345Z,150613.36
2018-05-23T04:10:46.486Z,150756.23
2018-05-23T04:13:15.640Z,150825.86
2018-05-23T04:15:44.649Z,150865.34
2018-05-23T04:18:13.830Z,150822.09
2018-05-23T04:20:43.596Z,150942.45
2018-05-23T04:23:12.750Z,151030.22
2018-05-23T04:25:41.737Z,151122.44
2018-05-23T04:28:13.264Z,151149.44
2018-05-23T04:30:42.390Z,151305.02
2018-05-23T04:33:11.380Z,151473.84
2018-05-23T04:35:41.297Z,151421.75
2018-05-23T04:38:10.191Z,151431.20
2018-05-23T04:40:39.232Z,151515.94
2018-05-23T04:43:09.104Z,151064.72
2018-05-23T04:45:37.986Z,150840.25
2018-05-23T04:48:06.917Z,150833.37
2018-05-23T04:50:36.915Z,150674.83
2018-05-23T04:53:05.825Z,150464.92
2018-05-23T04:55:34.796Z,150857.78
2018-05-23T04:58:06.445Z,150840.87
2018-05-23T05:00:35.650Z,150904.16
2018-05-23T05:03:04.531Z,151143.13
2018-05-23T05:05:34.553Z,151343.30
2018-05-23T05:08:03.448Z,151566.16
2018-05-23T05:10:32.358Z,150990.09
2018-05-23T05:13:02.145Z,150803.91
2018-05-23T05:15:31.054Z,151097.39
2018-05-23T05:17:59.933Z,151197.09
2018-05-23T05:20:29.747Z,151129.97
2018-05-23T05:22:58.783Z,151058.45
2018-05-23T05:25:27.842Z,150822.09
2018-05-23T05:27:57.017Z,150807.66
2018-05-23T05:30:26.233Z,150653.50
2018-05-23T05:32:55.228Z,150720.56
2018-05-23T05:35:25.014Z,150879.12
2018-05-23T05:37:53.962Z,151139.98
2018-05-23T05:40:23.292Z,151042.75
2018-05-23T05:42:52.402Z,151244.19
2018-05-23T05:45:21.412Z,151446.87
2018-05-23T05:47:50.467Z,151692.42
2018-05-23T05:50:20.690Z,151895.94
2018-05-23T05:52:49.682Z,151564.28
2018-05-23T05:55:18.682Z,151316.94
2018-05-23T05:57:49.726Z,151576.86
2018-05-23T06:00:18.935Z,151757.70
2018-05-23T06:02:47.915Z,151423.63
2018-05-23T06:05:16.996Z,151741.39
2018-05-23T06:07:47.280Z,152152.50
2018-05-23T06:10:16.419Z,152562.64
2018-05-23T06:15:25.361Z,153080.91
2018-05-23T06:17:55.498Z,153328.63
2018-05-23T06:20:25.312Z,153291.44
2018-05-23T06:22:56.726Z,152804.39
2018-05-23T06:25:25.524Z,153070.84
2018-05-23T06:27:54.994Z,153149.64
2018-05-23T06:32:57.728Z,152060.06
2018-05-23T06:35:27.080Z,152273.81
2018-05-23T06:37:56.968Z,152426.70
2018-05-23T06:40:27.013Z,152270.05
2018-05-23T06:42:56.094Z,151894.06
2018-05-23T06:47:59.195Z,151936.22
2018-05-23T06:50:28.702Z,151967.64
2018-05-23T06:55:33.557Z,151330.09
2018-05-23T06:58:04.082Z,151214.64
2018-05-23T07:00:33.802Z,151527.91
2018-05-23T07:03:03.673Z,151523.47
2018-05-23T07:05:33.064Z,151046.50
2018-05-23T07:08:03.387Z,150912.34
2018-05-23T07:10:32.332Z,150844.02
2018-05-23T07:13:01.539Z,150862.84
2018-05-23T07:15:31.529Z,150844.02
2018-05-23T07:18:00.508Z,150852.78
2018-05-23T07:20:30.401Z,150939.91
2018-05-23T07:23:00.986Z,151040.87
2018-05-23T07:25:29.911Z,151096.75
2018-05-23T07:27:59.027Z,150754.98
2018-05-23T07:30:28.175Z,151079.75
2018-05-23T07:32:57.172Z,151134.34
2018-05-23T07:35:26.166Z,150985.70
2018-05-23T07:37:56.120Z,150946.22
2018-05-23T07:40:25.079Z,150991.34
2018-05-23T07:42:54.082Z,151015.81
2018-05-23T07:45:23.988Z,150992.59
2018-05-23T07:47:52.852Z,150966.92
2018-05-23T07:50:21.793Z,150823.36
2018-05-23T07:52:51.684Z,150757.48
2018-05-23T07:55:21.104Z,150768.17
2018-05-23T07:57:50.737Z,150550.75
2018-05-23T08:00:21.840Z,150391.08
2018-05-23T08:02:51.690Z,150433.66
2018-05-23T08:05:20.646Z,150244.59
2018-05-23T08:07:49.950Z,149992.38
2018-05-23T08:10:19.045Z,149920.50
2018-05-23T08:12:48.451Z,149724.83
2018-05-23T08:15:18.371Z,149753.55
2018-05-23T08:17:49.798Z,149682.34
2018-05-23T08:20:18.708Z,149602.31
2018-05-23T08:22:48.634Z,149539.88
2018-05-23T08:25:17.521Z,149518.61
2018-05-23T08:27:46.519Z,149489.23
2018-05-23T08:30:16.468Z,149569.19
2018-05-23T08:32:45.578Z,149552.97
2018-05-23T08:35:14.673Z,149611.67
2018-05-23T08:37:45.673Z,149672.97
2018-05-23T08:40:14.757Z,149696.69
2018-05-23T08:42:43.787Z,149710.42
2018-05-23T08:45:12.757Z,149739.19
2018-05-23T08:47:42.053Z,149777.31
2018-05-23T08:50:11.042Z,149784.81
2018-05-23T08:52:42.585Z,149720.45
2018-05-23T08:55:11.536Z,149745.44
2018-05-23T08:57:40.593Z,149735.44
2018-05-23T09:00:09.611Z,149744.81
2018-05-23T09:02:38.441Z,149717.30
2018-05-23T09:05:07.385Z,149756.03
2018-05-23T09:07:36.232Z,149762.28
2018-05-23T09:10:05.063Z,149804.78
2018-05-23T09:12:33.892Z,149832.31
2018-05-23T09:15:02.748Z,149805.41
2018-05-23T09:17:31.916Z,149828.56
2018-05-23T09:20:00.794Z,149839.80
2018-05-23T09:22:41.908Z,149882.98
2018-05-23T09:25:10.721Z,149884.86
2018-05-23T09:27:39.509Z,149940.48
2018-05-23T09:30:08.519Z,150001.12
2018-05-23T09:32:37.384Z,150056.88
2018-05-23T09:35:06.195Z,150104.41
2018-05-23T09:37:35.139Z,150105.03
2018-05-23T09:40:04.374Z,150063.13
2018-05-23T09:42:33.319Z,150034.33
2018-05-23T09:45:02.465Z,150000.50
2018-05-23T09:47:31.404Z,150014.34
2018-05-23T09:50:00.397Z,150006.80
2018-05-23T09:52:32.673Z,149988.02
2018-05-23T09:55:02.036Z,149962.41
2018-05-23T09:57:31.169Z,149986.75
2018-05-23T10:00:01.042Z,150009.92
2018-05-23T10:02:30.571Z,150044.33
2018-05-23T10:04:59.769Z,149976.77
2018-05-23T10:07:30.630Z,149865.50
2018-05-23T10:09:59.622Z,149839.80
2018-05-23T10:12:28.813Z,149884.86
2018-05-23T10:14:59.152Z,149917.38
2018-05-23T10:17:28.249Z,149876.12
2018-05-23T10:19:57.282Z,149888.61
2018-05-23T10:22:26.434Z,149844.22
2018-05-23T10:24:55.635Z,149889.84
2018-05-23T10:27:24.729Z,149868.63
2018-05-23T10:29:53.855Z,149897.97
2018-05-23T10:32:22.997Z,149899.84
2018-05-23T10:34:52.027Z,149836.06
2018-05-23T10:37:21.237Z,149856.09
2018-05-23T10:39:50.322Z,149873.00
2018-05-23T10:42:19.316Z,149889.84
2018-05-23T10:44:49.276Z,149878.61
2018-05-23T10:47:18.260Z,149931.13
2018-05-23T10:49:47.318Z,149976.77
2018-05-23T10:52:16.422Z,150000.50
2018-05-23T10:54:45.404Z,149931.13
2018-05-23T10:57:14.383Z,149932.37
2018-05-23T10:59:43.502Z,149925.50
2018-05-23T11:02:12.496Z,149950.48
2018-05-23T11:04:41.620Z,149864.25
2018-05-23T11:07:11.714Z,149862.38
2018-05-23T11:09:40.641Z,149820.44
2018-05-23T11:12:10.310Z,149784.81
2018-05-23T11:14:40.897Z,149796.67
2018-05-23T11:17:09.925Z,149841.67
2018-05-23T11:19:39.046Z,149847.34
2018-05-23T11:22:08.234Z,149863.00
2018-05-23T11:24:38.854Z,149863.63
2018-05-23T11:27:07.958Z,149799.17
2018-05-23T11:29:37.171Z,149680.47
2018-05-23T11:32:06.408Z,149666.64
2018-05-23T11:34:35.505Z,149686.70
2018-05-23T11:37:04.866Z,149624.83
2018-05-23T11:39:33.998Z,149671.06
2018-05-23T11:42:02.940Z,149632.94
2018-05-23T11:44:31.867Z,149634.81
2018-05-23T11:47:00.834Z,149681.09
2018-05-23T11:49:29.836Z,149616.66
2018-05-23T11:54:38.282Z,149569.19
2018-05-23T11:57:07.362Z,149579.22
2018-05-23T11:59:36.864Z,149612.30
2018-05-23T12:04:41.720Z,149492.41
2018-05-23T12:07:10.919Z,149487.98
2018-05-23T12:09:40.272Z,149454.88
2018-05-23T12:12:09.842Z,149513.62
2018-05-23T12:14:39.173Z,149546.11
2018-05-23T12:19:43.681Z,149476.09
2018-05-23T12:22:13.024Z,149532.37
2018-05-23T12:24:42.987Z,149561.08
2018-05-23T12:27:12.129Z,149537.38
2018-05-23T12:29:41.188Z,149512.38
2018-05-23T12:32:10.134Z,149491.73
2018-05-23T12:34:39.135Z,149551.72
2018-05-23T12:37:08.170Z,149606.67
2018-05-23T12:39:37.293Z,149571.69
2018-05-23T12:42:06.674Z,149531.13
2018-05-23T12:44:35.774Z,149516.11
2018-05-23T12:47:05.921Z,149523.59
2018-05-23T12:49:35.084Z,149513.62
2018-05-23T12:52:04.409Z,149535.50
2018-05-23T12:54:34.568Z,149510.50
2018-05-23T12:57:03.810Z,149525.47
2018-05-23T12:59:32.986Z,149521.11
2018-05-23T13:02:02.368Z,149485.50
2018-05-23T13:04:32.266Z,149442.41
2018-05-23T13:07:01.445Z,149438.03
2018-05-23T13:09:31.859Z,149441.78
2018-05-23T13:12:01.301Z,149414.28
2018-05-23T13:14:30.567Z,149439.28
2018-05-23T13:19:34.446Z,149466.11
2018-05-23T13:22:03.723Z,149469.84
2018-05-23T13:24:33.968Z,149504.25
2018-05-23T13:27:04.184Z,149466.11
2018-05-23T13:29:33.533Z,149426.14
2018-05-23T13:32:04.189Z,149446.78
2018-05-23T13:34:33.427Z,149403.06
2018-05-23T13:37:03.650Z,149396.83
2018-05-23T13:39:33.810Z,149374.33
2018-05-23T13:42:03.119Z,149371.83
2018-05-23T13:44:32.216Z,149357.48
2018-05-23T13:47:01.921Z,149333.75
2018-05-23T13:49:30.954Z,149360.61
2018-05-23T13:52:00.291Z,149389.97
2018-05-23T13:54:30.082Z,149389.34
2018-05-23T13:56:59.269Z,149336.86
2018-05-23T13:59:28.369Z,149281.89
2018-05-23T14:01:57.988Z,149264.44
2018-05-23T14:04:27.409Z,149266.94
2018-05-23T14:06:56.597Z,149308.13
2018-05-23T14:09:28.323Z,149364.34
2018-05-23T14:11:57.280Z,149362.47
2018-05-23T14:14:26.541Z,149328.13
2018-05-23T14:16:56.802Z,149281.89
2018-05-23T14:19:26.079Z,149293.17
2018-05-23T14:21:56.421Z,149214.52
2018-05-23T14:24:27.520Z,149250.72
2018-05-23T14:26:56.859Z,149251.34
2018-05-23T14:29:25.931Z,149255.72
2018-05-23T14:31:57.379Z,149266.94
2018-05-23T14:34:26.525Z,149255.72
2018-05-23T14:36:55.789Z,149237.59
2018-05-23T14:39:26.842Z,149219.50
2018-05-23T14:41:56.701Z,149205.17
2018-05-23T14:44:25.679Z,149253.22
2018-05-23T14:46:54.938Z,149236.34
2018-05-23T14:49:24.905Z,149155.25
2018-05-23T14:51:53.890Z,149088.44
2018-05-23T14:54:24.715Z,149085.31
2018-05-23T14:56:53.871Z,149089.67
2018-05-23T14:59:23.309Z,149077.22
2018-05-23T15:01:52.342Z,149034.17
2018-05-23T15:04:21.495Z,149078.47
2018-05-23T15:06:50.516Z,149117.16
2018-05-23T15:09:19.666Z,149130.91
2018-05-23T15:11:48.818Z,149104.69
2018-05-23T15:14:17.885Z,149122.81
2018-05-23T15:16:48.185Z,149092.17
2018-05-23T15:19:17.362Z,149072.23
2018-05-23T15:21:48.043Z,149055.36
2018-05-23T15:24:18.188Z,149055.36
2018-05-23T15:26:48.513Z,149068.50
2018-05-23T15:29:17.496Z,149095.91
2018-05-23T15:31:46.548Z,149101.52
2018-05-23T15:34:15.707Z,149078.47
2018-05-23T15:36:44.656Z,149069.12
2018-05-23T15:39:14.690Z,149066.62
2018-05-23T15:41:44.144Z,149071.61
2018-05-23T15:44:13.769Z,149096.53
2018-05-23T15:46:43.951Z,149059.77
2018-05-23T15:49:12.783Z,149053.48
2018-05-23T15:51:42.509Z,148980.55
2018-05-23T15:54:12.457Z,148939.39
2018-05-23T15:56:41.445Z,148956.83
2018-05-23T15:59:10.460Z,148933.78
2018-05-23T16:01:41.561Z,148893.20
2018-05-23T16:04:11.261Z,148889.47
2018-05-23T16:06:40.422Z,148921.95
2018-05-23T16:09:10.413Z,148915.05
2018-05-23T16:11:39.531Z,148920.03
2018-05-23T16:14:08.913Z,148887.59
2018-05-23T16:16:38.030Z,148900.05
2018-05-23T16:19:07.592Z,148876.39
2018-05-23T16:21:36.899Z,148885.73
2018-05-23T16:24:06.303Z,148882.62
2018-05-23T16:26:35.817Z,148872.66
2018-05-23T16:29:04.940Z,148851.44
2018-05-23T16:31:34.149Z,148837.11
2018-05-23T16:34:03.135Z,148838.97
2018-05-23T16:36:32.196Z,148803.44
2018-05-23T16:39:02.004Z,148777.28
2018-05-23T16:41:31.447Z,148770.39
2018-05-23T16:44:01.054Z,148762.30
2018-05-23T16:46:32.610Z,148779.16
2018-05-23T16:49:01.777Z,148761.05
2018-05-23T16:51:31.020Z,148731.17
2018-05-23T16:54:02.252Z,148745.48
2018-05-23T16:56:31.651Z,148732.41
2018-05-23T16:59:01.120Z,148731.80
2018-05-23T17:01:30.263Z,148733.66
2018-05-23T17:03:59.152Z,148694.34
2018-05-23T17:06:28.106Z,148676.88
2018-05-23T17:08:59.832Z,148669.41
2018-05-23T17:11:29.022Z,148678.17
2018-05-23T17:13:58.205Z,148655.09
2018-05-23T17:16:28.217Z,148665.05
2018-05-23T17:18:57.326Z,148672.52
2018-05-23T17:21:26.483Z,148676.88
2018-05-23T17:23:55.731Z,148665.05
2018-05-23T17:26:27.905Z,148638.91
2018-05-23T17:28:57.036Z,148628.91
2018-05-23T17:31:26.001Z,148612.09
2018-05-23T17:33:55.158Z,148606.50
2018-05-23T17:38:58.880Z,148570.98
2018-05-23T17:41:29.050Z,148556.05
2018-05-23T17:43:58.022Z,148532.36
2018-05-23T17:46:28.228Z,148538.63
2018-05-23T17:48:57.258Z,148501.20
2018-05-23T17:51:27.695Z,148490.63
2018-05-23T17:56:31.080Z,148463.22
2018-05-23T17:59:00.094Z,148461.97
2018-05-23T18:01:31.685Z,148451.39
2018-05-23T18:04:00.978Z,148426.47
2018-05-23T18:06:30.561Z,148432.06
2018-05-23T18:08:59.966Z,148414.64
2018-05-23T18:11:29.631Z,148415.89
2018-05-23T18:13:58.668Z,148424.59
2018-05-23T18:16:29.640Z,148407.81
2018-05-23T18:18:58.959Z,148399.72
2018-05-23T18:21:28.252Z,148390.97
2018-05-23T18:24:03.658Z,148397.23
2018-05-23T18:26:33.033Z,148400.97
2018-05-23T18:29:02.037Z,148402.22
2018-05-23T18:31:33.068Z,148402.83
2018-05-23T18:34:02.086Z,148387.23
2018-05-23T18:36:30.965Z,148406.56
2018-05-23T18:39:00.903Z,148417.14
2018-05-23T18:41:29.782Z,148417.14
2018-05-23T18:43:58.673Z,148418.38
2018-05-23T18:46:28.577Z,148416.52
2018-05-23T18:48:57.487Z,148406.56
2018-05-23T18:51:26.352Z,148406.56
2018-05-23T18:53:55.472Z,148418.38
2018-05-23T18:56:24.298Z,148398.47
2018-05-23T18:58:53.357Z,148390.34
2018-05-23T19:01:24.198Z,148375.42
2018-05-23T19:03:53.191Z,148376.03
2018-05-23T19:06:22.254Z,148382.25
2018-05-23T19:11:27.546Z,148359.25
2018-05-23T19:13:56.503Z,148367.34
2018-05-23T19:16:25.426Z,148352.41
2018-05-23T19:18:55.249Z,148349.92
2018-05-23T19:21:24.244Z,148363.61
2018-05-23T19:23:53.129Z,148364.84
2018-05-23T19:28:56.236Z,148343.66
2018-05-23T19:31:25.141Z,148334.95
2018-05-23T19:34:00.777Z,148326.88
2018-05-23T19:36:29.671Z,148326.88
2018-05-23T19:38:58.415Z,148330.59
2018-05-23T19:41:27.460Z,148323.75
2018-05-23T19:43:56.891Z,148325.63
2018-05-23T19:46:26.155Z,148310.08
2018-05-23T19:48:55.051Z,148309.45
2018-05-23T19:51:25.583Z,148327.50
2018-05-23T19:53:54.779Z,148323.14
2018-05-23T19:56:24.187Z,148324.38
2018-05-23T19:58:53.279Z,148317.55
2018-05-23T20:01:22.422Z,148326.25
2018-05-23T20:03:51.391Z,148335.58
2018-05-23T20:06:21.192Z,148339.92
2018-05-23T20:08:50.904Z,148339.92
2018-05-23T20:11:24.138Z,148330.59
2018-05-23T20:13:53.843Z,148310.70
2018-05-23T20:16:23.520Z,148319.41
2018-05-23T20:18:54.036Z,148315.67
2018-05-23T20:21:23.965Z,148303.23
2018-05-23T20:23:54.750Z,148311.33
2018-05-23T20:26:24.973Z,148301.37
2018-05-23T20:28:54.010Z,148299.47
2018-05-23T20:31:26.792Z,148277.66
2018-05-23T20:33:55.667Z,148285.78
2018-05-23T20:36:25.705Z,148266.47
2018-05-23T20:41:28.306Z,148263.36
2018-05-23T20:43:57.286Z,148272.06
2018-05-23T20:46:26.336Z,148246.53
2018-05-23T20:48:55.526Z,148248.39
2018-05-23T20:51:24.486Z,148245.91
2018-05-23T20:53:54.462Z,148241.56
2018-05-23T20:56:24.273Z,148242.80
2018-05-23T20:58:54.709Z,148221.66
2018-05-23T21:01:23.926Z,148202.34
2018-05-23T21:03:52.932Z,148211.72
2018-05-23T21:06:21.837Z,148222.28
2018-05-23T21:08:51.338Z,148212.95
2018-05-23T21:11:20.267Z,148217.94
2018-05-23T21:13:49.115Z,148215.44
2018-05-23T21:16:18.210Z,148209.84
2018-05-23T21:18:46.991Z,148198.00
2018-05-23T21:21:16.170Z,148198.61
2018-05-23T21:23:45.094Z,148199.23
2018-05-23T21:26:14.095Z,148189.30
2018-05-23T21:28:48.510Z,148192.41
2018-05-23T21:31:17.399Z,148185.56
2018-05-23T21:33:46.576Z,148188.67
2018-05-23T21:36:17.128Z,148196.75
2018-05-23T21:38:46.113Z,148190.53
2018-05-23T21:41:14.893Z,148192.41
2018-05-23T21:43:44.623Z,148189.91
2018-05-23T21:46:14.439Z,148167.53
2018-05-23T21:48:44.249Z,148150.70
2018-05-23T21:51:13.899Z,148171.27
2018-05-23T21:53:43.159Z,148171.27
2018-05-23T21:56:12.003Z,148177.48
2018-05-23T21:58:42.582Z,148181.83
2018-05-23T22:01:14.342Z,148192.41
2018-05-23T22:03:43.232Z,148181.83
2018-05-23T22:06:12.310Z,148183.69
2018-05-23T22:08:41.118Z,148194.27
2018-05-23T22:11:10.021Z,148171.27
2018-05-23T22:13:39.853Z,148158.84
2018-05-23T22:16:08.611Z,148150.09
2018-05-23T22:18:37.407Z,148160.70
2018-05-23T22:21:06.287Z,148166.91
2018-05-23T22:23:35.181Z,148165.06
2018-05-23T22:26:04.183Z,148177.48
2018-05-23T22:28:34.892Z,148195.50
2018-05-23T22:31:03.908Z,148198.00
2018-05-23T22:33:32.801Z,148199.86
2018-05-23T22:36:02.607Z,148209.84
2018-05-23T22:38:31.401Z,148213.58
2018-05-23T22:41:00.293Z,148218.55
2018-05-23T22:43:29.146Z,148216.06
2018-05-23T22:45:57.975Z,148220.42
2018-05-23T22:48:26.770Z,148217.31
2018-05-23T22:50:55.762Z,148196.13
2018-05-23T22:53:24.757Z,148179.34
2018-05-23T22:55:53.754Z,148159.45
2018-05-23T22:58:23.565Z,148146.98
2018-05-23T23:00:52.441Z,148139.52
2018-05-23T23:03:21.384Z,148144.50
2018-05-23T23:05:55.766Z,148145.73
2018-05-23T23:08:24.759Z,148144.50
2018-05-23T23:10:54.474Z,148131.44
2018-05-23T23:13:27.644Z,148117.16
2018-05-23T23:15:56.456Z,148090.38
2018-05-23T23:18:25.356Z,148063.63
2018-05-23T23:20:57.320Z,148035.00
2018-05-23T23:23:26.405Z,148031.27
2018-05-23T23:25:55.505Z,148038.09
2018-05-23T23:28:25.316Z,148058.66
2018-05-23T23:30:55.234Z,148037.47
2018-05-23T23:33:24.029Z,148031.89
2018-05-23T23:35:52.919Z,148015.69
2018-05-23T23:38:21.689Z,148004.50
2018-05-23T23:40:50.492Z,147985.25
2018-05-23T23:43:20.303Z,147986.50
2018-05-23T23:45:49.085Z,147970.97
2018-05-23T23:48:18.195Z,147964.70
2018-05-23T23:50:48.947Z,147959.13
2018-05-23T23:53:17.813Z,147963.47
2018-05-23T23:55:46.598Z,147964.70
2018-05-23T23:58:15.703Z,147954.77
